sensor_id;sensor_type;location;lat;lon;timestamp;temperature;humidity
1958;DHT22;979;51.076;13.748;2023-03-19T00:02:58;12.20;47.80
1958;DHT22;979;51.076;13.748;2023-03-19T00:06:09;12.20;48.10
1958;DHT22;979;51.076;13.748;2023-03-19T00:09:22;12.10;48.60
1958;DHT22;979;51.076;13.748;2023-03-19T00:12:07;12.20;48.20
1958;DHT22;979;51.076;13.748;2023-03-19T00:14:59;12.10;48.30
1958;DHT22;979;51.076;13.748;2023-03-19T00:18:02;12.20;48.50
1958;DHT22;979;51.076;13.748;2023-03-19T00:21:14;12.10;48.10
1958;DHT22;979;51.076;13.748;2023-03-19T00:27:33;12.00;48.40
1958;DHT22;979;51.076;13.748;2023-03-19T00:30:26;12.00;48.40
1958;DHT22;979;51.076;13.748;2023-03-19T00:33:31;11.80;48.00
1958;DHT22;979;51.076;13.748;2023-03-19T00:39:42;12.00;48.30
1958;DHT22;979;51.076;13.748;2023-03-19T00:42:43;11.90;48.50
1958;DHT22;979;51.076;13.748;2023-03-19T00:45:46;11.90;48.60
1958;DHT22;979;51.076;13.748;2023-03-19T00:48:37;12.00;48.80
1958;DHT22;979;51.076;13.748;2023-03-19T00:51:45;11.80;48.70
1958;DHT22;979;51.076;13.748;2023-03-19T00:54:39;11.70;48.60
1958;DHT22;979;51.076;13.748;2023-03-19T00:57:47;11.70;48.60
1958;DHT22;979;51.076;13.748;2023-03-19T01:00:31;11.60;48.50
1958;DHT22;979;51.076;13.748;2023-03-19T01:03:37;11.70;48.40
1958;DHT22;979;51.076;13.748;2023-03-19T01:06:18;11.70;48.60
1958;DHT22;979;51.076;13.748;2023-03-19T01:09:02;11.60;48.70
1958;DHT22;979;51.076;13.748;2023-03-19T01:12:06;11.70;48.50
1958;DHT22;979;51.076;13.748;2023-03-19T01:15:15;11.60;48.60
1958;DHT22;979;51.076;13.748;2023-03-19T01:18:25;11.60;48.80
1958;DHT22;979;51.076;13.748;2023-03-19T01:21:17;11.50;48.80
1958;DHT22;979;51.076;13.748;2023-03-19T01:24:18;11.50;48.90
1958;DHT22;979;51.076;13.748;2023-03-19T01:29:02;11.30;48.90
1958;DHT22;979;51.076;13.748;2023-03-19T01:31:49;11.50;49.00
1958;DHT22;979;51.076;13.748;2023-03-19T01:34:54;11.40;49.00
1958;DHT22;979;51.076;13.748;2023-03-19T01:37:35;11.50;48.90
1958;DHT22;979;51.076;13.748;2023-03-19T01:40:20;11.40;48.80
1958;DHT22;979;51.076;13.748;2023-03-19T01:43:27;11.40;48.90
1958;DHT22;979;51.076;13.748;2023-03-19T01:46:52;11.50;48.90
1958;DHT22;979;51.076;13.748;2023-03-19T01:50:00;11.50;48.90
1958;DHT22;979;51.076;13.748;2023-03-19T01:52:49;11.40;49.00
1958;DHT22;979;51.076;13.748;2023-03-19T01:56:01;11.40;49.10
1958;DHT22;979;51.076;13.748;2023-03-19T01:59:26;11.30;48.90
1958;DHT22;979;51.076;13.748;2023-03-19T02:02:43;11.40;49.00
1958;DHT22;979;51.076;13.748;2023-03-19T02:05:57;11.40;49.00
1958;DHT22;979;51.076;13.748;2023-03-19T02:08:48;11.40;49.10
1958;DHT22;979;51.076;13.748;2023-03-19T02:11:46;11.60;49.10
1958;DHT22;979;51.076;13.748;2023-03-19T02:14:29;11.40;49.00
1958;DHT22;979;51.076;13.748;2023-03-19T02:17:38;11.50;49.50
1958;DHT22;979;51.076;13.748;2023-03-19T02:20:45;11.40;49.30
1958;DHT22;979;51.076;13.748;2023-03-19T02:23:36;11.40;49.20
1958;DHT22;979;51.076;13.748;2023-03-19T02:26:29;11.30;49.50
1958;DHT22;979;51.076;13.748;2023-03-19T02:29:15;11.30;49.50
1958;DHT22;979;51.076;13.748;2023-03-19T02:32:19;11.30;49.70
1958;DHT22;979;51.076;13.748;2023-03-19T02:35:03;11.30;49.40
1958;DHT22;979;51.076;13.748;2023-03-19T02:38:05;11.20;49.40
1958;DHT22;979;51.076;13.748;2023-03-19T02:41:03;11.20;49.50
1958;DHT22;979;51.076;13.748;2023-03-19T02:44:12;11.20;49.60
1958;DHT22;979;51.076;13.748;2023-03-19T02:46:52;11.30;49.80
1958;DHT22;979;51.076;13.748;2023-03-19T02:49:38;11.30;49.90
1958;DHT22;979;51.076;13.748;2023-03-19T02:52:24;11.20;49.80
1958;DHT22;979;51.076;13.748;2023-03-19T02:55:30;11.30;49.70
1958;DHT22;979;51.076;13.748;2023-03-19T02:58:01;11.30;49.80
1958;DHT22;979;51.076;13.748;2023-03-19T03:00:48;11.20;49.80
1958;DHT22;979;51.076;13.748;2023-03-19T03:03:49;11.50;49.90
1958;DHT22;979;51.076;13.748;2023-03-19T03:06:32;11.20;50.00
1958;DHT22;979;51.076;13.748;2023-03-19T03:09:21;11.30;50.00
1958;DHT22;979;51.076;13.748;2023-03-19T03:12:03;11.30;49.90
1958;DHT22;979;51.076;13.748;2023-03-19T03:14:42;11.30;49.80
1958;DHT22;979;51.076;13.748;2023-03-19T03:17:48;11.50;49.90
1958;DHT22;979;51.076;13.748;2023-03-19T03:20:32;11.30;49.90
1958;DHT22;979;51.076;13.748;2023-03-19T03:23:23;11.30;50.00
1958;DHT22;979;51.076;13.748;2023-03-19T03:26:29;11.20;50.10
1958;DHT22;979;51.076;13.748;2023-03-19T03:29:27;11.20;50.00
1958;DHT22;979;51.076;13.748;2023-03-19T03:32:12;11.00;49.90
1958;DHT22;979;51.076;13.748;2023-03-19T03:38:29;10.90;50.10
1958;DHT22;979;51.076;13.748;2023-03-19T03:44:51;10.80;50.10
1958;DHT22;979;51.076;13.748;2023-03-19T03:47:45;10.90;50.10
1958;DHT22;979;51.076;13.748;2023-03-19T03:50:44;11.10;50.10
1958;DHT22;979;51.076;13.748;2023-03-19T03:53:52;10.90;50.20
1958;DHT22;979;51.076;13.748;2023-03-19T03:57:50;10.90;49.90
1958;DHT22;979;51.076;13.748;2023-03-19T04:00:02;10.70;49.80
1958;DHT22;979;51.076;13.748;2023-03-19T04:03:04;10.80;49.90
1958;DHT22;979;51.076;13.748;2023-03-19T04:05:54;10.90;49.80
1958;DHT22;979;51.076;13.748;2023-03-19T04:09:03;10.80;50.20
1958;DHT22;979;51.076;13.748;2023-03-19T04:11:59;10.90;49.80
1958;DHT22;979;51.076;13.748;2023-03-19T04:14:47;10.70;49.80
1958;DHT22;979;51.076;13.748;2023-03-19T04:17:45;10.80;49.90
1958;DHT22;979;51.076;13.748;2023-03-19T04:20:29;10.70;49.70
1958;DHT22;979;51.076;13.748;2023-03-19T04:23:27;10.80;50.20
1958;DHT22;979;51.076;13.748;2023-03-19T04:26:50;10.70;50.10
1958;DHT22;979;51.076;13.748;2023-03-19T04:29:43;10.70;49.80
1958;DHT22;979;51.076;13.748;2023-03-19T04:32:36;10.70;50.10
1958;DHT22;979;51.076;13.748;2023-03-19T04:35:31;10.70;50.20
1958;DHT22;979;51.076;13.748;2023-03-19T04:38:35;10.70;50.10
1958;DHT22;979;51.076;13.748;2023-03-19T04:41:31;10.70;50.30
1958;DHT22;979;51.076;13.748;2023-03-19T04:44:39;10.70;50.10
1958;DHT22;979;51.076;13.748;2023-03-19T04:47:38;10.70;50.40
1958;DHT22;979;51.076;13.748;2023-03-19T04:51:10;10.70;50.20
1958;DHT22;979;51.076;13.748;2023-03-19T04:53:58;10.70;50.20
1958;DHT22;979;51.076;13.748;2023-03-19T04:56:55;10.60;50.50
1958;DHT22;979;51.076;13.748;2023-03-19T04:59:49;10.70;50.40
1958;DHT22;979;51.076;13.748;2023-03-19T05:02:49;10.40;50.00
1958;DHT22;979;51.076;13.748;2023-03-19T05:05:51;10.30;50.90
1958;DHT22;979;51.076;13.748;2023-03-19T05:09:01;10.40;50.40
1958;DHT22;979;51.076;13.748;2023-03-19T05:11:52;10.40;50.80
1958;DHT22;979;51.076;13.748;2023-03-19T05:14:52;10.30;50.40
1958;DHT22;979;51.076;13.748;2023-03-19T05:18:00;10.20;50.50
1958;DHT22;979;51.076;13.748;2023-03-19T05:20:45;10.20;50.40
1958;DHT22;979;51.076;13.748;2023-03-19T05:23:46;10.30;50.50
1958;DHT22;979;51.076;13.748;2023-03-19T05:26:33;10.30;50.50
1958;DHT22;979;51.076;13.748;2023-03-19T05:29:28;10.10;50.50
1958;DHT22;979;51.076;13.748;2023-03-19T05:32:38;10.00;50.40
1958;DHT22;979;51.076;13.748;2023-03-19T05:35:46;10.10;50.40
1958;DHT22;979;51.076;13.748;2023-03-19T05:39:05;10.10;50.50
1958;DHT22;979;51.076;13.748;2023-03-19T05:42:09;10.10;50.60
1958;DHT22;979;51.076;13.748;2023-03-19T05:45:00;10.10;50.50
1958;DHT22;979;51.076;13.748;2023-03-19T05:48:28;10.10;50.60
1958;DHT22;979;51.076;13.748;2023-03-19T05:51:35;10.10;50.60
1958;DHT22;979;51.076;13.748;2023-03-19T05:54:42;10.00;50.50
1958;DHT22;979;51.076;13.748;2023-03-19T06:01:00;10.00;50.40
1958;DHT22;979;51.076;13.748;2023-03-19T06:04:09;10.20;50.60
1958;DHT22;979;51.076;13.748;2023-03-19T06:06:56;10.30;50.80
1958;DHT22;979;51.076;13.748;2023-03-19T06:09:36;10.30;50.50
1958;DHT22;979;51.076;13.748;2023-03-19T06:12:22;10.40;51.00
1958;DHT22;979;51.076;13.748;2023-03-19T06:15:31;10.40;50.60
1958;DHT22;979;51.076;13.748;2023-03-19T06:18:33;10.50;50.90
1958;DHT22;979;51.076;13.748;2023-03-19T06:21:29;10.50;51.00
1958;DHT22;979;51.076;13.748;2023-03-19T06:24:35;10.30;50.60
1958;DHT22;979;51.076;13.748;2023-03-19T06:27:24;10.60;50.70
1958;DHT22;979;51.076;13.748;2023-03-19T06:30:32;10.60;50.60
1958;DHT22;979;51.076;13.748;2023-03-19T06:33:35;10.60;50.60
1958;DHT22;979;51.076;13.748;2023-03-19T06:36:52;10.60;50.80
1958;DHT22;979;51.076;13.748;2023-03-19T06:39:36;10.80;50.70
1958;DHT22;979;51.076;13.748;2023-03-19T06:42:15;10.80;50.70
1958;DHT22;979;51.076;13.748;2023-03-19T06:45:07;10.80;50.80
1958;DHT22;979;51.076;13.748;2023-03-19T06:47:55;10.90;50.50
1958;DHT22;979;51.076;13.748;2023-03-19T06:51:06;11.00;50.70
1958;DHT22;979;51.076;13.748;2023-03-19T06:54:30;11.20;50.70
1958;DHT22;979;51.076;13.748;2023-03-19T06:58:03;11.30;50.30
1958;DHT22;979;51.076;13.748;2023-03-19T07:00:47;11.40;50.50
1958;DHT22;979;51.076;13.748;2023-03-19T07:03:35;11.50;50.10
1958;DHT22;979;51.076;13.748;2023-03-19T07:06:19;11.50;50.20
1958;DHT22;979;51.076;13.748;2023-03-19T07:12:11;11.80;49.80
1958;DHT22;979;51.076;13.748;2023-03-19T07:14:54;11.90;49.90
1958;DHT22;979;51.076;13.748;2023-03-19T07:17:26;11.90;49.70
1958;DHT22;979;51.076;13.748;2023-03-19T07:20:10;12.00;49.70
1958;DHT22;979;51.076;13.748;2023-03-19T07:23:06;12.10;49.40
1958;DHT22;979;51.076;13.748;2023-03-19T07:25:48;12.00;49.20
1958;DHT22;979;51.076;13.748;2023-03-19T07:28:27;12.10;49.30
1958;DHT22;979;51.076;13.748;2023-03-19T07:31:09;12.30;49.30
1958;DHT22;979;51.076;13.748;2023-03-19T07:33:38;12.40;49.00
1958;DHT22;979;51.076;13.748;2023-03-19T07:36:07;12.40;48.90
1958;DHT22;979;51.076;13.748;2023-03-19T07:38:37;12.50;48.70
1958;DHT22;979;51.076;13.748;2023-03-19T07:41:52;12.60;48.80
1958;DHT22;979;51.076;13.748;2023-03-19T07:44:44;12.70;48.70
1958;DHT22;979;51.076;13.748;2023-03-19T07:47:17;12.70;48.40
1958;DHT22;979;51.076;13.748;2023-03-19T07:49:59;12.90;48.50
1958;DHT22;979;51.076;13.748;2023-03-19T07:52:48;13.00;48.60
1958;DHT22;979;51.076;13.748;2023-03-19T07:55:34;13.10;48.30
1958;DHT22;979;51.076;13.748;2023-03-19T07:58:09;13.20;49.00
1958;DHT22;979;51.076;13.748;2023-03-19T08:00:44;13.30;48.20
1958;DHT22;979;51.076;13.748;2023-03-19T08:03:13;13.40;48.10
1958;DHT22;979;51.076;13.748;2023-03-19T08:06:06;13.50;48.00
1958;DHT22;979;51.076;13.748;2023-03-19T08:12:22;13.80;47.90
1958;DHT22;979;51.076;13.748;2023-03-19T08:15:04;13.90;48.00
1958;DHT22;979;51.076;13.748;2023-03-19T08:17:55;14.00;47.90
1958;DHT22;979;51.076;13.748;2023-03-19T08:20:41;14.10;47.80
1958;DHT22;979;51.076;13.748;2023-03-19T08:23:53;14.30;48.00
1958;DHT22;979;51.076;13.748;2023-03-19T08:26:22;14.40;47.90
1958;DHT22;979;51.076;13.748;2023-03-19T08:28:51;14.50;47.50
1958;DHT22;979;51.076;13.748;2023-03-19T08:31:38;14.60;47.40
1958;DHT22;979;51.076;13.748;2023-03-19T08:34:09;14.80;47.50
1958;DHT22;979;51.076;13.748;2023-03-19T08:36:41;14.80;47.20
1958;DHT22;979;51.076;13.748;2023-03-19T08:39:12;14.90;47.10
1958;DHT22;979;51.076;13.748;2023-03-19T08:41:45;14.80;47.00
1958;DHT22;979;51.076;13.748;2023-03-19T08:44:25;15.10;47.00
1958;DHT22;979;51.076;13.748;2023-03-19T08:47:09;15.10;46.60
1958;DHT22;979;51.076;13.748;2023-03-19T08:50:04;15.10;46.60
1958;DHT22;979;51.076;13.748;2023-03-19T08:52:36;15.10;46.30
1958;DHT22;979;51.076;13.748;2023-03-19T08:55:05;15.20;46.30
1958;DHT22;979;51.076;13.748;2023-03-19T08:57:37;15.20;46.20
1958;DHT22;979;51.076;13.748;2023-03-19T09:00:26;15.30;46.40
1958;DHT22;979;51.076;13.748;2023-03-19T09:02:55;15.40;46.40
1958;DHT22;979;51.076;13.748;2023-03-19T09:05:27;15.50;46.30
1958;DHT22;979;51.076;13.748;2023-03-19T09:08:21;15.50;46.20
1958;DHT22;979;51.076;13.748;2023-03-19T09:10:56;15.60;45.90
1958;DHT22;979;51.076;13.748;2023-03-19T09:13:32;15.70;46.00
1958;DHT22;979;51.076;13.748;2023-03-19T09:16:09;15.70;45.90
1958;DHT22;979;51.076;13.748;2023-03-19T09:22:22;15.80;45.60
1958;DHT22;979;51.076;13.748;2023-03-19T09:25:11;15.80;45.70
1958;DHT22;979;51.076;13.748;2023-03-19T09:27:54;15.90;45.70
1958;DHT22;979;51.076;13.748;2023-03-19T09:30:32;15.90;45.50
1958;DHT22;979;51.076;13.748;2023-03-19T09:33:10;16.00;45.60
1958;DHT22;979;51.076;13.748;2023-03-19T09:35:58;16.00;45.50
1958;DHT22;979;51.076;13.748;2023-03-19T09:38:53;16.00;45.80
1958;DHT22;979;51.076;13.748;2023-03-19T09:42:05;16.00;45.60
1958;DHT22;979;51.076;13.748;2023-03-19T09:44:42;16.10;45.60
1958;DHT22;979;51.076;13.748;2023-03-19T09:51:54;16.20;45.40
1958;DHT22;979;51.076;13.748;2023-03-19T09:55:01;16.20;45.40
1958;DHT22;979;51.076;13.748;2023-03-19T09:57:36;16.40;45.50
1958;DHT22;979;51.076;13.748;2023-03-19T10:00:19;16.40;45.60
1958;DHT22;979;51.076;13.748;2023-03-19T10:02:52;16.60;45.50
1958;DHT22;979;51.076;13.748;2023-03-19T10:05:26;16.70;45.50
1958;DHT22;979;51.076;13.748;2023-03-19T10:08:26;16.80;45.40
1958;DHT22;979;51.076;13.748;2023-03-19T10:11:23;16.90;45.20
1958;DHT22;979;51.076;13.748;2023-03-19T10:14:04;17.10;45.40
1958;DHT22;979;51.076;13.748;2023-03-19T10:17:34;17.20;45.20
1958;DHT22;979;51.076;13.748;2023-03-19T10:20:07;17.40;45.60
1958;DHT22;979;51.076;13.748;2023-03-19T10:22:40;17.50;45.50
1958;DHT22;979;51.076;13.748;2023-03-19T10:25:23;17.70;45.50
1958;DHT22;979;51.076;13.748;2023-03-19T10:27:59;17.80;45.10
1958;DHT22;979;51.076;13.748;2023-03-19T10:30:30;18.10;45.80
1958;DHT22;979;51.076;13.748;2023-03-19T10:33:10;18.20;44.90
1958;DHT22;979;51.076;13.748;2023-03-19T10:35:43;18.30;44.80
1958;DHT22;979;51.076;13.748;2023-03-19T10:38:18;18.50;44.90
1958;DHT22;979;51.076;13.748;2023-03-19T10:41:01;18.70;44.70
1958;DHT22;979;51.076;13.748;2023-03-19T10:43:33;18.70;44.30
1958;DHT22;979;51.076;13.748;2023-03-19T10:46:19;18.70;45.20
1958;DHT22;979;51.076;13.748;2023-03-19T10:49:02;18.80;44.60
1958;DHT22;979;51.076;13.748;2023-03-19T10:51:30;18.90;44.70
1958;DHT22;979;51.076;13.748;2023-03-19T10:54:00;19.00;44.50
1958;DHT22;979;51.076;13.748;2023-03-19T10:56:32;19.00;44.10
1958;DHT22;979;51.076;13.748;2023-03-19T10:59:17;18.90;43.70
1958;DHT22;979;51.076;13.748;2023-03-19T11:01:54;18.80;43.50
1958;DHT22;979;51.076;13.748;2023-03-19T11:04:24;18.80;43.60
1958;DHT22;979;51.076;13.748;2023-03-19T11:07:01;18.70;43.80
1958;DHT22;979;51.076;13.748;2023-03-19T11:09:33;18.60;44.00
1958;DHT22;979;51.076;13.748;2023-03-19T11:12:06;18.70;44.30
1958;DHT22;979;51.076;13.748;2023-03-19T11:14:39;18.80;44.10
1958;DHT22;979;51.076;13.748;2023-03-19T11:17:18;19.00;44.30
1958;DHT22;979;51.076;13.748;2023-03-19T11:19:49;19.20;44.30
1958;DHT22;979;51.076;13.748;2023-03-19T11:22:27;19.30;44.20
1958;DHT22;979;51.076;13.748;2023-03-19T11:24:56;19.50;44.10
1958;DHT22;979;51.076;13.748;2023-03-19T11:27:31;19.60;44.10
1958;DHT22;979;51.076;13.748;2023-03-19T11:30:11;19.80;44.10
1958;DHT22;979;51.076;13.748;2023-03-19T11:33:00;19.90;43.90
1958;DHT22;979;51.076;13.748;2023-03-19T11:35:54;20.00;43.80
1958;DHT22;979;51.076;13.748;2023-03-19T11:38:36;19.90;43.20
1958;DHT22;979;51.076;13.748;2023-03-19T11:41:14;20.30;43.70
1958;DHT22;979;51.076;13.748;2023-03-19T11:43:50;20.50;43.80
1958;DHT22;979;51.076;13.748;2023-03-19T11:46:35;20.80;43.50
1958;DHT22;979;51.076;13.748;2023-03-19T11:49:26;21.10;43.20
1958;DHT22;979;51.076;13.748;2023-03-19T11:52:00;21.40;43.20
1958;DHT22;979;51.076;13.748;2023-03-19T11:54:38;21.90;43.20
1958;DHT22;979;51.076;13.748;2023-03-19T11:57:16;22.30;42.80
1958;DHT22;979;51.076;13.748;2023-03-19T11:59:59;22.60;42.80
1958;DHT22;979;51.076;13.748;2023-03-19T12:03:06;22.90;42.30
1958;DHT22;979;51.076;13.748;2023-03-19T12:05:45;23.10;42.10
1958;DHT22;979;51.076;13.748;2023-03-19T12:08:27;23.40;42.50
1958;DHT22;979;51.076;13.748;2023-03-19T12:11:02;23.70;42.20
1958;DHT22;979;51.076;13.748;2023-03-19T12:13:45;23.90;42.10
1958;DHT22;979;51.076;13.748;2023-03-19T12:16:24;24.10;41.70
1958;DHT22;979;51.076;13.748;2023-03-19T12:22:38;24.20;41.60
1958;DHT22;979;51.076;13.748;2023-03-19T12:25:51;24.40;41.40
1958;DHT22;979;51.076;13.748;2023-03-19T12:29:42;24.20;41.20
1958;DHT22;979;51.076;13.748;2023-03-19T12:32:24;24.20;42.20
1958;DHT22;979;51.076;13.748;2023-03-19T12:34:59;24.30;41.40
1958;DHT22;979;51.076;13.748;2023-03-19T12:37:32;24.60;41.70
1958;DHT22;979;51.076;13.748;2023-03-19T12:40:14;24.80;41.30
1958;DHT22;979;51.076;13.748;2023-03-19T12:42:44;24.70;40.70
1958;DHT22;979;51.076;13.748;2023-03-19T12:45:25;24.40;40.70
1958;DHT22;979;51.076;13.748;2023-03-19T12:47:57;24.00;40.40
1958;DHT22;979;51.076;13.748;2023-03-19T12:50:30;23.80;40.70
1958;DHT22;979;51.076;13.748;2023-03-19T12:53:07;23.50;40.70
1958;DHT22;979;51.076;13.748;2023-03-19T12:55:53;23.20;40.80
1958;DHT22;979;51.076;13.748;2023-03-19T12:58:32;23.00;40.80
1958;DHT22;979;51.076;13.748;2023-03-19T13:01:12;22.90;41.70
1958;DHT22;979;51.076;13.748;2023-03-19T13:03:51;22.80;41.10
1958;DHT22;979;51.076;13.748;2023-03-19T13:06:26;22.80;41.30
1958;DHT22;979;51.076;13.748;2023-03-19T13:09:04;22.70;41.40
1958;DHT22;979;51.076;13.748;2023-03-19T13:11:47;22.70;41.50
1958;DHT22;979;51.076;13.748;2023-03-19T13:14:25;22.70;41.60
1958;DHT22;979;51.076;13.748;2023-03-19T13:17:05;22.50;41.20
1958;DHT22;979;51.076;13.748;2023-03-19T13:19:42;22.50;41.40
1958;DHT22;979;51.076;13.748;2023-03-19T13:22:30;22.50;41.70
1958;DHT22;979;51.076;13.748;2023-03-19T13:25:01;22.80;42.00
1958;DHT22;979;51.076;13.748;2023-03-19T13:27:33;22.30;41.60
1958;DHT22;979;51.076;13.748;2023-03-19T13:30:15;22.20;41.40
1958;DHT22;979;51.076;13.748;2023-03-19T13:32:47;22.10;41.60
1958;DHT22;979;51.076;13.748;2023-03-19T13:35:37;22.00;41.60
1958;DHT22;979;51.076;13.748;2023-03-19T13:38:16;21.90;41.60
1958;DHT22;979;51.076;13.748;2023-03-19T13:40:47;21.90;41.60
1958;DHT22;979;51.076;13.748;2023-03-19T13:46:38;21.80;41.80
1958;DHT22;979;51.076;13.748;2023-03-19T13:49:28;21.70;42.00
1958;DHT22;979;51.076;13.748;2023-03-19T13:58:51;21.40;41.90
1958;DHT22;979;51.076;13.748;2023-03-19T14:02:43;21.30;42.20
1958;DHT22;979;51.076;13.748;2023-03-19T14:04:30;21.10;42.20
1958;DHT22;979;51.076;13.748;2023-03-19T14:07:10;21.00;42.40
1958;DHT22;979;51.076;13.748;2023-03-19T14:09:44;20.80;42.60
1958;DHT22;979;51.076;13.748;2023-03-19T14:12:32;20.70;42.70
1958;DHT22;979;51.076;13.748;2023-03-19T14:15:14;20.60;42.90
1958;DHT22;979;51.076;13.748;2023-03-19T14:17:54;20.70;43.00
1958;DHT22;979;51.076;13.748;2023-03-19T14:20:26;20.60;43.00
1958;DHT22;979;51.076;13.748;2023-03-19T14:23:24;20.60;43.20
1958;DHT22;979;51.076;13.748;2023-03-19T14:26:15;20.60;43.20
1958;DHT22;979;51.076;13.748;2023-03-19T14:31:44;20.50;43.30
1958;DHT22;979;51.076;13.748;2023-03-19T14:34:21;20.50;43.60
1958;DHT22;979;51.076;13.748;2023-03-19T14:36:57;20.50;43.70
1958;DHT22;979;51.076;13.748;2023-03-19T14:39:33;20.50;43.50
1958;DHT22;979;51.076;13.748;2023-03-19T14:42:23;20.50;43.90
1958;DHT22;979;51.076;13.748;2023-03-19T14:51:57;20.70;44.10
1958;DHT22;979;51.076;13.748;2023-03-19T14:54:34;20.40;43.90
1958;DHT22;979;51.076;13.748;2023-03-19T14:57:06;20.40;44.10
1958;DHT22;979;51.076;13.748;2023-03-19T14:59:38;20.40;44.30
1958;DHT22;979;51.076;13.748;2023-03-19T15:02:20;20.40;44.30
1958;DHT22;979;51.076;13.748;2023-03-19T15:04:50;20.40;44.30
1958;DHT22;979;51.076;13.748;2023-03-19T15:07:23;20.40;44.40
1958;DHT22;979;51.076;13.748;2023-03-19T15:10:06;20.40;44.60
1958;DHT22;979;51.076;13.748;2023-03-19T15:13:02;20.40;44.70
1958;DHT22;979;51.076;13.748;2023-03-19T15:15:41;20.40;44.80
1958;DHT22;979;51.076;13.748;2023-03-19T15:18:16;20.40;44.90
1958;DHT22;979;51.076;13.748;2023-03-19T15:20:50;20.40;45.20
1958;DHT22;979;51.076;13.748;2023-03-19T15:23:25;20.40;45.30
1958;DHT22;979;51.076;13.748;2023-03-19T15:25:56;20.30;45.30
1958;DHT22;979;51.076;13.748;2023-03-19T15:28:29;20.40;45.20
1958;DHT22;979;51.076;13.748;2023-03-19T15:31:00;20.30;45.30
1958;DHT22;979;51.076;13.748;2023-03-19T15:33:53;20.30;45.60
1958;DHT22;979;51.076;13.748;2023-03-19T15:36:27;20.20;46.10
1958;DHT22;979;51.076;13.748;2023-03-19T15:39:03;20.20;45.80
1958;DHT22;979;51.076;13.748;2023-03-19T15:41:35;20.20;46.00
1958;DHT22;979;51.076;13.748;2023-03-19T15:45:06;20.10;46.10
1958;DHT22;979;51.076;13.748;2023-03-19T15:48:06;20.10;46.00
1958;DHT22;979;51.076;13.748;2023-03-19T15:50:40;20.00;46.80
1958;DHT22;979;51.076;13.748;2023-03-19T15:53:15;19.70;48.10
1958;DHT22;979;51.076;13.748;2023-03-19T15:55:48;19.50;49.20
1958;DHT22;979;51.076;13.748;2023-03-19T15:58:20;19.40;50.60
1958;DHT22;979;51.076;13.748;2023-03-19T16:00:52;19.10;51.30
1958;DHT22;979;51.076;13.748;2023-03-19T16:03:27;19.00;52.00
1958;DHT22;979;51.076;13.748;2023-03-19T16:06:01;18.90;52.70
1958;DHT22;979;51.076;13.748;2023-03-19T16:08:31;18.90;53.00
1958;DHT22;979;51.076;13.748;2023-03-19T16:11:27;18.70;53.30
1958;DHT22;979;51.076;13.748;2023-03-19T16:13:57;18.60;54.20
1958;DHT22;979;51.076;13.748;2023-03-19T16:16:32;18.50;54.10
1958;DHT22;979;51.076;13.748;2023-03-19T16:19:30;18.40;54.90
1958;DHT22;979;51.076;13.748;2023-03-19T16:56:35;17.20;57.90
1958;DHT22;979;51.076;13.748;2023-03-19T17:03:13;17.00;58.60
1958;DHT22;979;51.076;13.748;2023-03-19T17:42:55;16.00;60.40
1958;DHT22;979;51.076;13.748;2023-03-19T17:49:51;16.20;60.70
1958;DHT22;979;51.076;13.748;2023-03-19T17:58:53;16.20;60.70
1958;DHT22;979;51.076;13.748;2023-03-19T18:02:49;16.20;61.00
1958;DHT22;979;51.076;13.748;2023-03-19T18:05:35;16.00;61.00
1958;DHT22;979;51.076;13.748;2023-03-19T18:08:30;16.10;61.20
1958;DHT22;979;51.076;13.748;2023-03-19T18:20:03;16.20;61.50
1958;DHT22;979;51.076;13.748;2023-03-19T18:30:58;16.00;61.50
1958;DHT22;979;51.076;13.748;2023-03-19T18:33:33;16.00;61.60
1958;DHT22;979;51.076;13.748;2023-03-19T18:36:40;16.10;62.50
1958;DHT22;979;51.076;13.748;2023-03-19T18:39:32;15.90;62.70
1958;DHT22;979;51.076;13.748;2023-03-19T18:42:17;15.80;63.00
1958;DHT22;979;51.076;13.748;2023-03-19T18:44:54;15.50;62.60
1958;DHT22;979;51.076;13.748;2023-03-19T18:47:30;15.80;63.70
1958;DHT22;979;51.076;13.748;2023-03-19T18:53:32;15.70;64.10
1958;DHT22;979;51.076;13.748;2023-03-19T18:56:26;15.70;64.40
1958;DHT22;979;51.076;13.748;2023-03-19T19:09:59;15.40;64.60
1958;DHT22;979;51.076;13.748;2023-03-19T19:12:31;15.50;65.20
1958;DHT22;979;51.076;13.748;2023-03-19T19:15:33;15.40;65.50
1958;DHT22;979;51.076;13.748;2023-03-19T19:18:21;15.40;65.60
1958;DHT22;979;51.076;13.748;2023-03-19T19:21:39;15.30;66.30
1958;DHT22;979;51.076;13.748;2023-03-19T19:25:26;15.30;66.30
1958;DHT22;979;51.076;13.748;2023-03-19T19:28:31;15.30;66.10
1958;DHT22;979;51.076;13.748;2023-03-19T19:31:21;15.30;66.10
1958;DHT22;979;51.076;13.748;2023-03-19T19:33:54;15.30;66.50
1958;DHT22;979;51.076;13.748;2023-03-19T19:36:36;15.30;66.80
1958;DHT22;979;51.076;13.748;2023-03-19T19:39:24;15.30;66.90
1958;DHT22;979;51.076;13.748;2023-03-19T20:09:50;15.00;67.50
1958;DHT22;979;51.076;13.748;2023-03-19T20:12:20;15.20;68.10
1958;DHT22;979;51.076;13.748;2023-03-19T20:14:52;15.10;68.10
1958;DHT22;979;51.076;13.748;2023-03-19T20:17:21;15.10;68.50
1958;DHT22;979;51.076;13.748;2023-03-19T20:20:13;15.10;69.00
1958;DHT22;979;51.076;13.748;2023-03-19T20:22:48;15.00;69.00
1958;DHT22;979;51.076;13.748;2023-03-19T20:25:39;15.00;69.20
1958;DHT22;979;51.076;13.748;2023-03-19T20:28:20;15.00;69.50
1958;DHT22;979;51.076;13.748;2023-03-19T20:31:03;15.00;69.60
1958;DHT22;979;51.076;13.748;2023-03-19T20:33:38;14.90;69.80
1958;DHT22;979;51.076;13.748;2023-03-19T20:36:18;14.90;70.10
1958;DHT22;979;51.076;13.748;2023-03-19T20:38:50;15.00;70.20
1958;DHT22;979;51.076;13.748;2023-03-19T20:41:30;15.00;70.80
1958;DHT22;979;51.076;13.748;2023-03-19T20:44:02;14.90;70.70
1958;DHT22;979;51.076;13.748;2023-03-19T20:46:32;14.80;70.40
1958;DHT22;979;51.076;13.748;2023-03-19T20:49:01;14.70;70.70
1958;DHT22;979;51.076;13.748;2023-03-19T20:51:34;14.70;70.90
1958;DHT22;979;51.076;13.748;2023-03-19T20:54:06;14.60;70.90
1958;DHT22;979;51.076;13.748;2023-03-19T20:56:39;14.70;71.10
1958;DHT22;979;51.076;13.748;2023-03-19T20:59:09;14.70;71.40
1958;DHT22;979;51.076;13.748;2023-03-19T21:01:38;14.60;71.30
1958;DHT22;979;51.076;13.748;2023-03-19T21:04:14;14.60;71.80
1958;DHT22;979;51.076;13.748;2023-03-19T21:06:44;14.60;71.70
1958;DHT22;979;51.076;13.748;2023-03-19T21:09:20;14.60;72.00
1958;DHT22;979;51.076;13.748;2023-03-19T21:12:09;14.50;71.90
1958;DHT22;979;51.076;13.748;2023-03-19T21:15:02;14.50;72.20
1958;DHT22;979;51.076;13.748;2023-03-19T21:17:30;14.40;71.80
1958;DHT22;979;51.076;13.748;2023-03-19T21:20:06;14.30;72.10
1958;DHT22;979;51.076;13.748;2023-03-19T21:22:44;14.30;72.20
1958;DHT22;979;51.076;13.748;2023-03-19T21:25:20;14.20;72.20
1958;DHT22;979;51.076;13.748;2023-03-19T21:27:56;14.20;72.30
1958;DHT22;979;51.076;13.748;2023-03-19T21:30:29;14.10;72.50
1958;DHT22;979;51.076;13.748;2023-03-19T21:33:03;14.00;72.80
1958;DHT22;979;51.076;13.748;2023-03-19T21:35:34;14.00;72.80